Time,TemperatureF,DewpointF,PressureIn,WindDirection,WindDirectionDegrees,WindSpeedMPH,WindSpeedGustMPH,Humidity,HourlyPrecipIn,Conditions,Clouds,dailyrainin,SolarRadiationWatts/m^2,SoftwareType,DateUTC
2013-08-05 00:01:00,63.6,62.7,30.09,ESE,116,0.0,0.0,97,0.00,,,0.00,0,Wunderground v.1.15,2013-08-05 04:01:00,
2013-08-05 00:03:00,63.4,62.2,30.09,ESE,116,0.0,0.0,96,0.00,,,0.00,0,Wunderground v.1.15,2013-08-05 04:03:00,
2013-08-05 00:06:00,63.2,62.0,30.09,ESE,116,0.0,0.0,96,0.00,,,0.00,0,Wunderground v.1.15,2013-08-05 04:06:00,
2013-08-05 00:07:00,63.1,61.9,30.09,ESE,116,0.0,0.0,96,0.00,,,0.00,0,Wunderground v.1.15,2013-08-05 04:07:00,
2013-08-05 00:09:00,63.1,61.9,30.09,ESE,116,0.0,0.0,96,0.00,,,0.00,0,Wunderground v.1.15,2013-08-05 04:09:00,
2013-08-05 00:15:00,62.9,61.7,30.10,ESE,116,0.0,0.0,96,0.00,,,0.00,0,Wunderground v.1.15,2013-08-05 04:15:00,
2013-08-05 00:20:00,63.1,62.2,30.10,NNE,15,0.0,0.0,97,0.00,,,0.00,0,Wunderground v.1.15,2013-08-05 04:20:00,
2013-08-05 00:25:00,63.6,62.7,30.10,North,355,0.0,1.0,97,0.00,,,0.00,0,Wunderground v.1.15,2013-08-05 04:25:00,
2013-08-05 00:31:00,64.0,63.1,30.10,North,355,0.0,0.0,97,0.00,,,0.00,0,Wunderground v.1.15,2013-08-05 04:31:00,
2013-08-05 00:37:00,63.9,62.7,30.10,North,355,0.0,0.0,96,0.00,,,0.00,0,Wunderground v.1.15,2013-08-05 04:37:00,
2013-08-05 00:43:00,63.6,62.4,30.11,North,355,0.0,0.0,96,0.00,,,0.00,0,Wunderground v.1.15,2013-08-05 04:43:00,
2013-08-05 00:48:00,64.2,63.0,30.11,North,355,0.0,0.0,96,0.00,,,0.00,0,Wunderground v.1.15,2013-08-05 04:48:00,
2013-08-05 00:54:00,64.3,63.1,30.11,North,355,0.0,0.0,96,0.00,,,0.00,0,Wunderground v.1.15,2013-08-05 04:54:00,
2013-08-05 00:58:00,64.8,63.3,30.10,North,355,0.0,0.0,95,0.00,,,0.00,0,Wunderground v.1.15,2013-08-05 04:58:00,
2013-08-05 01:05:00,64.5,62.7,30.10,North,355,0.0,0.0,94,0.00,,,0.00,0,Wunderground v.1.15,2013-08-05 05:05:00,
2013-08-05 01:11:00,64.1,62.6,30.10,North,355,0.0,0.0,95,0.00,,,0.00,0,Wunderground v.1.15,2013-08-05 05:11:00,
2013-08-05 01:17:00,64.2,63.0,30.10,North,355,0.0,0.0,96,0.00,,,0.00,0,Wunderground v.1.15,2013-08-05 05:17:00,
2013-08-05 01:22:00,64.1,62.9,30.10,North,355,0.0,0.0,96,0.00,,,0.00,0,Wunderground v.1.15,2013-08-05 05:22:00,
2013-08-05 01:28:00,63.5,62.3,30.10,North,355,0.0,0.0,96,0.00,,,0.00,0,Wunderground v.1.15,2013-08-05 05:28:00,
2013-08-05 01:33:00,63.5,62.3,30.10,North,355,0.0,0.0,96,0.00,,,0.00,0,Wunderground v.1.15,2013-08-05 05:33:00,
2013-08-05 01:39:00,63.4,62.2,30.10,North,355,0.0,0.0,96,0.00,,,0.00,0,Wunderground v.1.15,2013-08-05 05:39:00,
2013-08-05 01:45:00,63.2,62.0,30.10,North,355,0.0,0.0,96,0.00,,,0.00,0,Wunderground v.1.15,2013-08-05 05:45:00,
2013-08-05 01:50:00,63.3,62.4,30.10,North,355,0.0,0.0,97,0.00,,,0.00,0,Wunderground v.1.15,2013-08-05 05:50:00,
2013-08-05 01:56:00,62.9,61.7,30.10,North,355,0.0,0.0,96,0.00,,,0.00,0,Wunderground v.1.15,2013-08-05 05:56:00,
2013-08-05 02:01:00,62.9,61.7,30.10,North,355,0.0,0.0,96,0.00,,,0.00,0,Wunderground v.1.15,2013-08-05 06:01:00,
2013-08-05 02:06:00,62.5,61.3,30.10,North,355,0.0,0.0,96,0.00,,,0.00,0,Wunderground v.1.15,2013-08-05 06:06:00,
2013-08-05 02:11:00,62.6,61.7,30.10,North,355,0.0,0.0,97,0.00,,,0.00,0,Wunderground v.1.15,2013-08-05 06:11:00,
2013-08-05 02:16:00,62.8,61.9,30.10,North,355,0.0,0.0,97,0.00,,,0.00,0,Wunderground v.1.15,2013-08-05 06:16:00,
2013-08-05 02:21:00,62.9,62.0,30.10,North,355,0.0,0.0,97,0.00,,,0.00,0,Wunderground v.1.15,2013-08-05 06:21:00,
2013-08-05 02:27:00,63.0,62.1,30.10,North,355,0.0,0.0,97,0.00,,,0.00,0,Wunderground v.1.15,2013-08-05 06:27:00,
2013-08-05 02:31:00,63.0,62.1,30.10,North,355,0.0,0.0,97,0.00,,,0.00,0,Wunderground v.1.15,2013-08-05 06:31:00,
2013-08-05 02:37:00,62.8,61.9,30.10,North,355,0.0,0.0,97,0.00,,,0.00,0,Wunderground v.1.15,2013-08-05 06:37:00,
2013-08-05 02:42:00,62.8,61.9,30.10,North,355,0.0,1.0,97,0.00,,,0.00,0,Wunderground v.1.15,2013-08-05 06:42:00,
2013-08-05 02:47:00,62.6,61.7,30.10,North,355,0.0,1.0,97,0.00,,,0.00,0,Wunderground v.1.15,2013-08-05 06:47:00,
2013-08-05 02:52:00,62.4,61.5,30.10,North,355,0.0,0.0,97,0.00,,,0.00,0,Wunderground v.1.15,2013-08-05 06:52:00,
2013-08-05 02:56:00,62.2,61.3,30.10,North,355,0.0,1.0,97,0.00,,,0.00,0,Wunderground v.1.15,2013-08-05 06:56:00,
2013-08-05 03:02:00,62.0,61.1,30.11,North,355,0.0,0.0,97,0.00,,,0.00,0,Wunderground v.1.15,2013-08-05 07:02:00,
2013-08-05 03:07:00,62.0,61.1,30.10,North,355,0.0,0.0,97,0.00,,,0.00,0,Wunderground v.1.15,2013-08-05 07:07:00,
2013-08-05 03:12:00,62.2,61.3,30.10,North,355,0.0,0.0,97,0.00,,,0.00,0,Wunderground v.1.15,2013-08-05 07:12:00,
2013-08-05 03:17:00,62.2,61.3,30.10,North,355,0.0,0.0,97,0.00,,,0.00,0,Wunderground v.1.15,2013-08-05 07:17:00,
2013-08-05 03:22:00,62.1,61.2,30.11,North,355,0.0,0.0,97,0.00,,,0.00,0,Wunderground v.1.15,2013-08-05 07:22:00,
2013-08-05 03:27:00,62.1,61.2,30.11,North,355,0.0,0.0,97,0.00,,,0.00,0,Wunderground v.1.15,2013-08-05 07:27:00,
2013-08-05 03:32:00,62.1,61.2,30.10,North,355,0.0,0.0,97,0.00,,,0.00,0,Wunderground v.1.15,2013-08-05 07:32:00,
2013-08-05 03:37:00,62.2,61.3,30.10,North,355,0.0,0.0,97,0.00,,,0.00,0,Wunderground v.1.15,2013-08-05 07:37:00,
2013-08-05 03:42:00,62.0,61.1,30.10,North,355,0.0,0.0,97,0.00,,,0.00,0,Wunderground v.1.15,2013-08-05 07:42:00,
2013-08-05 03:47:00,61.7,60.8,30.10,North,355,0.0,0.0,97,0.00,,,0.00,0,Wunderground v.1.15,2013-08-05 07:47:00,
2013-08-05 03:52:00,61.4,60.5,30.10,North,355,0.0,0.0,97,0.00,,,0.00,0,Wunderground v.1.15,2013-08-05 07:52:00,
2013-08-05 03:58:00,61.5,60.6,30.10,North,355,0.0,0.0,97,0.00,,,0.00,0,Wunderground v.1.15,2013-08-05 07:58:00,
2013-08-05 04:03:00,61.6,60.7,30.11,North,355,0.0,0.0,97,0.00,,,0.00,0,Wunderground v.1.15,2013-08-05 08:03:00,
2013-08-05 04:08:00,61.8,60.9,30.10,North,355,0.0,0.0,97,0.00,,,0.00,0,Wunderground v.1.15,2013-08-05 08:08:00,
2013-08-05 04:13:00,62.1,61.5,30.11,North,355,0.0,0.0,98,0.00,,,0.00,0,Wunderground v.1.15,2013-08-05 08:13:00,
2013-08-05 04:18:00,62.6,62.0,30.10,North,355,0.0,0.0,98,0.00,,,0.00,0,Wunderground v.1.15,2013-08-05 08:18:00,
2013-08-05 04:23:00,63.2,62.6,30.10,North,355,0.0,2.0,98,0.00,,,0.00,0,Wunderground v.1.15,2013-08-05 08:23:00,
2013-08-05 04:28:00,63.7,62.8,30.10,North,355,0.0,2.0,97,0.00,,,0.00,0,Wunderground v.1.15,2013-08-05 08:28:00,
2013-08-05 04:33:00,63.2,62.0,30.10,North,355,0.0,1.0,96,0.00,,,0.00,0,Wunderground v.1.15,2013-08-05 08:33:00,
2013-08-05 04:38:00,62.2,61.0,30.10,North,355,0.0,1.0,96,0.00,,,0.00,0,Wunderground v.1.15,2013-08-05 08:38:00,
2013-08-05 04:43:00,61.8,60.6,30.11,North,355,0.0,0.0,96,0.00,,,0.00,0,Wunderground v.1.15,2013-08-05 08:43:00,
2013-08-05 04:48:00,61.8,60.9,30.11,North,355,0.0,0.0,97,0.00,,,0.00,0,Wunderground v.1.15,2013-08-05 08:48:00,
2013-08-05 04:53:00,62.3,61.4,30.10,North,355,0.0,0.0,97,0.00,,,0.00,0,Wunderground v.1.15,2013-08-05 08:53:00,
2013-08-05 04:59:00,61.9,61.0,30.10,North,355,0.0,1.0,97,0.00,,,0.00,0,Wunderground v.1.15,2013-08-05 08:59:00,
2013-08-05 05:04:00,61.6,60.7,30.10,North,355,0.0,0.0,97,0.00,,,0.00,0,Wunderground v.1.15,2013-08-05 09:04:00,
2013-08-05 05:09:00,61.5,60.6,30.10,North,355,0.0,0.0,97,0.00,,,0.00,0,Wunderground v.1.15,2013-08-05 09:09:00,
2013-08-05 05:14:00,61.2,60.3,30.10,North,355,0.0,0.0,97,0.00,,,0.00,0,Wunderground v.1.15,2013-08-05 09:14:00,
2013-08-05 05:19:00,61.0,60.1,30.10,North,355,0.0,0.0,97,0.00,,,0.00,0,Wunderground v.1.15,2013-08-05 09:19:00,
2013-08-05 05:24:00,60.9,60.0,30.10,North,355,0.0,0.0,97,0.00,,,0.00,0,Wunderground v.1.15,2013-08-05 09:24:00,
2013-08-05 05:30:00,61.1,60.2,30.10,North,355,0.0,0.0,97,0.00,,,0.00,0,Wunderground v.1.15,2013-08-05 09:30:00,
2013-08-05 05:35:00,61.3,60.4,30.10,North,355,0.0,0.0,97,0.00,,,0.00,0,Wunderground v.1.15,2013-08-05 09:35:00,
2013-08-05 05:40:00,61.4,60.5,30.10,North,355,0.0,0.0,97,0.00,,,0.00,0,Wunderground v.1.15,2013-08-05 09:40:00,
2013-08-05 05:45:00,61.1,60.2,30.10,North,355,0.0,1.0,97,0.00,,,0.00,0,Wunderground v.1.15,2013-08-05 09:45:00,
2013-08-05 05:50:00,60.6,59.7,30.10,North,355,0.0,0.0,97,0.00,,,0.00,0,Wunderground v.1.15,2013-08-05 09:50:00,
2013-08-05 05:55:00,60.5,59.6,30.11,North,355,0.0,0.0,97,0.00,,,0.00,0,Wunderground v.1.15,2013-08-05 09:55:00,
2013-08-05 06:02:00,60.4,59.5,30.11,North,355,0.0,0.0,97,0.00,,,0.00,0,Wunderground v.1.15,2013-08-05 10:02:00,
2013-08-05 06:07:00,60.2,59.3,30.12,North,355,0.0,0.0,97,0.00,,,0.00,0,Wunderground v.1.15,2013-08-05 10:07:00,
2013-08-05 06:12:00,60.2,59.3,30.12,North,355,0.0,0.0,97,0.00,,,0.00,0,Wunderground v.1.15,2013-08-05 10:12:00,
2013-08-05 06:17:00,60.5,59.9,30.11,North,355,0.0,0.0,98,0.00,,,0.00,0,Wunderground v.1.15,2013-08-05 10:17:00,
2013-08-05 06:22:00,61.2,60.6,30.11,North,355,0.0,0.0,98,0.00,,,0.00,0,Wunderground v.1.15,2013-08-05 10:22:00,
2013-08-05 06:27:00,60.9,60.0,30.11,NNW,340,1.0,3.0,97,0.00,,,0.00,7,Wunderground v.1.15,2013-08-05 10:27:00,
2013-08-05 06:32:00,60.8,59.9,30.12,NNW,344,2.0,3.0,97,0.00,,,0.00,11,Wunderground v.1.15,2013-08-05 10:32:00,
2013-08-05 06:37:00,60.8,59.7,30.12,NNW,345,0.0,3.0,96,0.00,,,0.00,16,Wunderground v.1.15,2013-08-05 10:37:00,
2013-08-05 06:42:00,60.8,59.7,30.13,NNW,345,0.0,2.0,96,0.00,,,0.00,21,Wunderground v.1.15,2013-08-05 10:42:00,
2013-08-05 06:47:00,60.7,59.6,30.13,NNW,345,0.0,2.0,96,0.00,,,0.00,49,Wunderground v.1.15,2013-08-05 10:47:00,
2013-08-05 06:52:00,60.9,59.8,30.13,NNW,345,1.0,1.0,96,0.00,,,0.00,60,Wunderground v.1.15,2013-08-05 10:52:00,
2013-08-05 06:58:00,61.4,60.2,30.13,NNW,345,1.0,2.0,96,0.00,,,0.00,70,Wunderground v.1.15,2013-08-05 10:58:00,
2013-08-05 07:03:00,62.0,60.6,30.13,NNW,345,1.0,2.0,95,0.00,,,0.00,86,Wunderground v.1.15,2013-08-05 11:03:00,
2013-08-05 07:08:00,62.5,60.4,30.13,North,349,1.0,3.0,93,0.00,,,0.00,104,Wunderground v.1.15,2013-08-05 11:08:00,
2013-08-05 07:13:00,62.8,60.7,30.13,North,355,1.0,3.0,93,0.00,,,0.00,120,Wunderground v.1.15,2013-08-05 11:13:00,
2013-08-05 07:18:00,62.8,60.4,30.14,North,355,0.0,4.0,92,0.00,,,0.00,142,Wunderground v.1.15,2013-08-05 11:18:00,
2013-08-05 07:23:00,63.1,60.7,30.13,North,11,1.0,3.0,92,0.00,,,0.00,163,Wunderground v.1.15,2013-08-05 11:23:00,
2013-08-05 07:28:00,63.5,60.8,30.14,NNW,347,0.0,3.0,91,0.00,,,0.00,183,Wunderground v.1.15,2013-08-05 11:28:00,
2013-08-05 07:34:00,63.8,61.1,30.14,North,355,1.0,3.0,91,0.00,,,0.00,199,Wunderground v.1.15,2013-08-05 11:34:00,
2013-08-05 07:39:00,64.1,61.4,30.15,North,355,0.0,3.0,91,0.00,,,0.00,220,Wunderground v.1.15,2013-08-05 11:39:00,
2013-08-05 07:44:00,64.8,62.4,30.15,North,355,0.0,1.0,92,0.00,,,0.00,243,Wunderground v.1.15,2013-08-05 11:44:00,
2013-08-05 07:49:00,65.6,61.6,30.15,NNE,29,4.0,4.0,87,0.00,,,0.00,248,Wunderground v.1.15,2013-08-05 11:49:00,
2013-08-05 07:54:00,66.3,61.0,30.15,NNE,27,2.0,6.0,83,0.00,,,0.00,250,Wunderground v.1.15,2013-08-05 11:54:00,
2013-08-05 07:59:00,66.6,61.3,30.15,NE,46,0.0,6.0,83,0.00,,,0.00,279,Wunderground v.1.15,2013-08-05 11:59:00,
2013-08-05 08:04:00,66.8,61.5,30.15,North,11,6.0,6.0,83,0.00,,,0.00,309,Wunderground v.1.15,2013-08-05 12:04:00,
2013-08-05 08:09:00,67.0,62.0,30.15,NNE,30,0.0,6.0,84,0.00,,,0.00,371,Wunderground v.1.15,2013-08-05 12:09:00,
2013-08-05 08:15:00,67.1,61.8,30.15,NNE,24,4.0,5.0,83,0.00,,,0.00,200,Wunderground v.1.15,2013-08-05 12:15:00,
2013-08-05 08:19:00,67.5,61.8,30.15,NNE,26,2.0,3.0,82,0.00,,,0.00,229,Wunderground v.1.15,2013-08-05 12:19:00,
2013-08-05 08:25:00,67.8,61.4,30.15,NNE,22,4.0,7.0,80,0.00,,,0.00,186,Wunderground v.1.15,2013-08-05 12:25:00,
2013-08-05 08:30:00,68.1,62.0,30.15,NNE,30,1.0,3.0,81,0.00,,,0.00,190,Wunderground v.1.15,2013-08-05 12:30:00,
2013-08-05 08:35:00,68.4,62.3,30.16,NE,53,0.0,4.0,81,0.00,,,0.00,315,Wunderground v.1.15,2013-08-05 12:35:00,
2013-08-05 08:40:00,69.1,61.6,30.15,ENE,67,2.0,6.0,77,0.00,,,0.00,167,Wunderground v.1.15,2013-08-05 12:40:00,
2013-08-05 08:46:00,69.1,62.3,30.15,ENE,67,0.0,6.0,79,0.00,,,0.00,188,Wunderground v.1.15,2013-08-05 12:46:00,
2013-08-05 08:50:00,69.1,62.3,30.16,NE,43,1.0,6.0,79,0.00,,,0.00,475,Wunderground v.1.15,2013-08-05 12:50:00,
2013-08-05 08:56:00,69.5,62.3,30.16,NE,51,3.0,6.0,78,0.00,,,0.00,172,Wunderground v.1.15,2013-08-05 12:56:00,
2013-08-05 09:01:00,70.1,63.6,30.15,North,9,0.0,1.0,80,0.00,,,0.00,186,Wunderground v.1.15,2013-08-05 13:01:00,
2013-08-05 09:06:00,71.4,63.1,30.16,ESE,112,0.0,2.0,75,0.00,,,0.00,533,Wunderground v.1.15,2013-08-05 13:06:00,
2013-08-05 09:12:00,71.8,62.3,30.16,East,97,1.0,3.0,72,0.00,,,0.00,636,Wunderground v.1.15,2013-08-05 13:12:00,
2013-08-05 09:17:00,72.1,61.4,30.16,NE,48,1.0,5.0,69,0.00,,,0.00,246,Wunderground v.1.15,2013-08-05 13:17:00,
2013-08-05 09:22:00,72.1,62.2,30.16,ENE,65,1.0,4.0,71,0.00,,,0.00,679,Wunderground v.1.15,2013-08-05 13:22:00,
2013-08-05 09:26:00,72.8,62.0,30.16,ENE,75,0.0,4.0,69,0.00,,,0.00,299,Wunderground v.1.15,2013-08-05 13:26:00,
2013-08-05 09:32:00,72.4,61.7,30.16,ENE,61,7.0,7.0,69,0.00,,,0.00,225,Wunderground v.1.15,2013-08-05 13:32:00,
2013-08-05 09:37:00,73.0,60.5,30.16,ENE,75,5.0,8.0,65,0.00,,,0.00,272,Wunderground v.1.15,2013-08-05 13:37:00,
2013-08-05 09:42:00,72.2,62.3,30.16,North,5,2.0,5.0,71,0.00,,,0.00,297,Wunderground v.1.15,2013-08-05 13:42:00,
2013-08-05 09:47:00,72.3,61.1,30.16,NE,38,3.0,9.0,68,0.00,,,0.00,397,Wunderground v.1.15,2013-08-05 13:47:00,
2013-08-05 09:52:00,72.4,61.2,30.16,NE,44,3.0,7.0,68,0.00,,,0.00,434,Wunderground v.1.15,2013-08-05 13:52:00,
2013-08-05 09:57:00,72.3,61.1,30.16,NNE,32,5.0,7.0,68,0.00,,,0.00,320,Wunderground v.1.15,2013-08-05 13:57:00,
2013-08-05 10:02:00,72.3,62.0,30.16,NE,34,3.0,5.0,70,0.00,,,0.00,330,Wunderground v.1.15,2013-08-05 14:02:00,
2013-08-05 10:07:00,73.5,61.9,30.16,ENE,77,2.0,6.0,67,0.00,,,0.00,844,Wunderground v.1.15,2013-08-05 14:07:00,
2013-08-05 10:13:00,74.1,60.7,30.16,ENE,61,2.0,6.0,63,0.00,,,0.00,844,Wunderground v.1.15,2013-08-05 14:13:00,
2013-08-05 10:18:00,74.2,61.2,30.16,North,360,5.0,9.0,64,0.00,,,0.00,424,Wunderground v.1.15,2013-08-05 14:18:00,
2013-08-05 10:23:00,73.8,60.9,30.17,NE,46,9.0,9.0,64,0.00,,,0.00,369,Wunderground v.1.15,2013-08-05 14:23:00,
2013-08-05 10:27:00,73.8,61.3,30.16,ENE,64,4.0,9.0,65,0.00,,,0.00,501,Wunderground v.1.15,2013-08-05 14:27:00,
2013-08-05 10:33:00,73.8,61.3,30.16,North,10,3.0,7.0,65,0.00,,,0.00,745,Wunderground v.1.15,2013-08-05 14:33:00,
2013-08-05 10:38:00,74.2,61.2,30.16,ENE,59,3.0,7.0,64,0.00,,,0.00,420,Wunderground v.1.15,2013-08-05 14:38:00,
2013-08-05 10:43:00,74.7,60.8,30.16,NE,55,4.0,7.0,62,0.00,,,0.00,404,Wunderground v.1.15,2013-08-05 14:43:00,
2013-08-05 10:48:00,75.0,63.3,30.17,NNE,32,4.0,7.0,67,0.00,,,0.00,960,Wunderground v.1.15,2013-08-05 14:48:00,
2013-08-05 10:53:00,75.5,61.6,30.17,NE,40,2.0,4.0,62,0.00,,,0.00,497,Wunderground v.1.15,2013-08-05 14:53:00,
2013-08-05 10:58:00,75.5,62.9,30.17,ENE,69,4.0,4.0,65,0.00,,,0.00,512,Wunderground v.1.15,2013-08-05 14:58:00,
2013-08-05 11:04:00,75.3,60.0,30.17,ENE,66,5.0,7.0,59,0.00,,,0.00,438,Wunderground v.1.15,2013-08-05 15:04:00,
2013-08-05 11:08:00,75.3,60.9,30.17,NNE,27,3.0,7.0,61,0.00,,,0.00,468,Wunderground v.1.15,2013-08-05 15:08:00,
2013-08-05 11:14:00,75.6,62.1,30.17,ENE,63,2.0,6.0,63,0.00,,,0.00,874,Wunderground v.1.15,2013-08-05 15:14:00,
2013-08-05 11:19:00,76.2,64.0,30.17,NE,35,2.0,6.0,66,0.00,,,0.00,735,Wunderground v.1.15,2013-08-05 15:19:00,
2013-08-05 11:24:00,75.9,61.5,30.17,NE,51,3.0,5.0,61,0.00,,,0.00,765,Wunderground v.1.15,2013-08-05 15:24:00,
2013-08-05 11:29:00,76.2,59.9,30.17,ESE,114,3.0,3.0,57,0.00,,,0.00,858,Wunderground v.1.15,2013-08-05 15:29:00,
2013-08-05 11:34:00,76.7,59.8,30.16,ENE,67,0.0,7.0,56,0.00,,,0.00,909,Wunderground v.1.15,2013-08-05 15:34:00,
2013-08-05 11:39:00,76.8,59.4,30.16,NE,49,2.0,3.0,55,0.00,,,0.00,958,Wunderground v.1.15,2013-08-05 15:39:00,
2013-08-05 11:44:00,76.6,60.2,30.16,North,360,2.0,6.0,57,0.00,,,0.00,564,Wunderground v.1.15,2013-08-05 15:44:00,
2013-08-05 11:50:00,76.5,61.1,30.16,SSE,147,3.0,3.0,59,0.00,,,0.00,503,Wunderground v.1.15,2013-08-05 15:50:00,
2013-08-05 11:54:00,76.6,61.2,30.16,ESE,120,3.0,6.0,59,0.00,,,0.00,526,Wunderground v.1.15,2013-08-05 15:54:00,
2013-08-05 12:00:00,76.4,61.0,30.15,SE,133,3.0,4.0,59,0.00,,,0.00,455,Wunderground v.1.15,2013-08-05 16:00:00,
2013-08-05 12:05:00,76.7,61.3,30.15,SE,132,5.0,6.0,59,0.00,,,0.00,914,Wunderground v.1.15,2013-08-05 16:05:00,
2013-08-05 12:10:00,77.2,60.3,30.16,ENE,63,1.0,4.0,56,0.00,,,0.00,1071,Wunderground v.1.15,2013-08-05 16:10:00,
2013-08-05 12:15:00,77.2,62.2,30.16,ESE,106,2.0,5.0,60,0.00,,,0.00,510,Wunderground v.1.15,2013-08-05 16:15:00,
2013-08-05 12:20:00,77.6,60.2,30.16,ESE,105,3.0,3.0,55,0.00,,,0.00,589,Wunderground v.1.15,2013-08-05 16:20:00,
2013-08-05 12:25:00,77.6,59.6,30.16,ENE,77,3.0,6.0,54,0.00,,,0.00,592,Wunderground v.1.15,2013-08-05 16:25:00,
2013-08-05 12:30:00,77.1,59.7,30.15,ENE,76,0.0,3.0,55,0.00,,,0.00,1023,Wunderground v.1.15,2013-08-05 16:30:00,
2013-08-05 12:35:00,77.9,59.9,30.15,ESE,111,2.0,4.0,54,0.00,,,0.00,1009,Wunderground v.1.15,2013-08-05 16:35:00,
2013-08-05 12:40:00,77.7,60.8,30.15,SSW,206,0.0,3.0,56,0.00,,,0.00,1004,Wunderground v.1.15,2013-08-05 16:40:00,
2013-08-05 12:45:00,78.0,60.0,30.15,NE,44,0.0,6.0,54,0.00,,,0.00,954,Wunderground v.1.15,2013-08-05 16:45:00,
2013-08-05 12:50:00,79.1,61.0,30.15,East,101,5.0,6.0,54,0.00,,,0.00,909,Wunderground v.1.15,2013-08-05 16:50:00,
2013-08-05 12:55:00,78.7,60.1,30.14,East,83,0.0,6.0,53,0.00,,,0.00,963,Wunderground v.1.15,2013-08-05 16:55:00,
2013-08-05 13:02:00,77.9,60.4,30.14,NW,321,4.0,4.0,55,0.00,,,0.00,972,Wunderground v.1.15,2013-08-05 17:02:00,
2013-08-05 13:07:00,78.4,61.4,30.14,NNE,26,3.0,5.0,56,0.00,,,0.00,921,Wunderground v.1.15,2013-08-05 17:07:00,
2013-08-05 13:12:00,79.3,60.1,30.14,ESE,110,2.0,7.0,52,0.00,,,0.00,921,Wunderground v.1.15,2013-08-05 17:12:00,
2013-08-05 13:17:00,78.9,59.8,30.13,SSE,150,2.0,8.0,52,0.00,,,0.00,911,Wunderground v.1.15,2013-08-05 17:17:00,
2013-08-05 13:22:00,79.1,62.6,30.13,SSE,153,2.0,5.0,57,0.00,,,0.00,907,Wunderground v.1.15,2013-08-05 17:22:00,
2013-08-05 13:27:00,79.0,60.4,30.13,East,96,5.0,6.0,53,0.00,,,0.00,918,Wunderground v.1.15,2013-08-05 17:27:00,
2013-08-05 13:32:00,79.3,61.7,30.13,East,85,5.0,5.0,55,0.00,,,0.00,905,Wunderground v.1.15,2013-08-05 17:32:00,
2013-08-05 13:37:00,79.4,61.3,30.12,East,85,3.0,5.0,54,0.00,,,0.00,953,Wunderground v.1.15,2013-08-05 17:37:00,
2013-08-05 13:42:00,79.7,61.1,30.12,East,100,6.0,8.0,53,0.00,,,0.00,909,Wunderground v.1.15,2013-08-05 17:42:00,
2013-08-05 13:47:00,79.3,62.7,30.12,SSW,192,3.0,8.0,57,0.00,,,0.00,921,Wunderground v.1.15,2013-08-05 17:47:00,
2013-08-05 13:52:00,78.7,61.7,30.12,SSW,194,2.0,4.0,56,0.00,,,0.00,912,Wunderground v.1.15,2013-08-05 17:52:00,
2013-08-05 13:57:00,79.6,63.0,30.12,NE,34,0.0,4.0,57,0.00,,,0.00,838,Wunderground v.1.15,2013-08-05 17:57:00,
2013-08-05 14:02:00,80.0,61.9,30.12,South,173,3.0,5.0,54,0.00,,,0.00,663,Wunderground v.1.15,2013-08-05 18:02:00,
2013-08-05 14:07:00,79.5,61.4,30.12,SE,134,0.0,6.0,54,0.00,,,0.00,531,Wunderground v.1.15,2013-08-05 18:07:00,
2013-08-05 14:12:00,78.6,60.6,30.12,South,172,1.0,5.0,54,0.00,,,0.00,411,Wunderground v.1.15,2013-08-05 18:12:00,
2013-08-05 14:17:00,78.4,60.4,30.12,SSW,201,3.0,6.0,54,0.00,,,0.00,396,Wunderground v.1.15,2013-08-05 18:17:00,
2013-08-05 14:22:00,77.7,61.7,30.12,SSW,212,1.0,3.0,58,0.00,,,0.00,499,Wunderground v.1.15,2013-08-05 18:22:00,
2013-08-05 14:28:00,78.0,61.0,30.12,SW,214,5.0,6.0,56,0.00,,,0.00,510,Wunderground v.1.15,2013-08-05 18:28:00,
2013-08-05 14:33:00,78.9,61.4,30.12,SSW,195,2.0,5.0,55,0.00,,,0.00,1025,Wunderground v.1.15,2013-08-05 18:33:00,
2013-08-05 14:38:00,80.2,59.9,30.11,SE,132,4.0,7.0,50,0.00,,,0.00,561,Wunderground v.1.15,2013-08-05 18:38:00,
2013-08-05 14:43:00,80.3,64.2,30.11,SSW,213,1.0,7.0,58,0.00,,,0.00,722,Wunderground v.1.15,2013-08-05 18:43:00,
2013-08-05 14:48:00,79.8,63.7,30.11,West,272,0.0,7.0,58,0.00,,,0.00,1009,Wunderground v.1.15,2013-08-05 18:48:00,
2013-08-05 14:53:00,79.6,61.0,30.11,ESE,119,2.0,5.0,53,0.00,,,0.00,573,Wunderground v.1.15,2013-08-05 18:53:00,
2013-08-05 14:58:00,80.9,63.2,30.11,SW,229,1.0,5.0,55,0.00,,,0.00,617,Wunderground v.1.15,2013-08-05 18:58:00,
2013-08-05 15:03:00,81.1,64.4,30.10,SSW,202,1.0,2.0,57,0.00,,,0.00,617,Wunderground v.1.15,2013-08-05 19:03:00,
2013-08-05 15:08:00,80.0,62.4,30.10,SW,220,2.0,6.0,55,0.00,,,0.00,357,Wunderground v.1.15,2013-08-05 19:08:00,
2013-08-05 15:14:00,77.9,62.4,30.10,WSW,239,1.0,5.0,59,0.00,,,0.00,287,Wunderground v.1.15,2013-08-05 19:14:00,
2013-08-05 15:19:00,77.1,63.1,30.11,SSW,207,3.0,5.0,62,0.00,,,0.00,267,Wunderground v.1.15,2013-08-05 19:19:00,
2013-08-05 15:24:00,77.1,62.1,30.10,SW,224,2.0,4.0,60,0.00,,,0.00,339,Wunderground v.1.15,2013-08-05 19:24:00,
2013-08-05 15:29:00,78.3,61.8,30.09,SSE,161,0.0,2.0,57,0.00,,,0.00,385,Wunderground v.1.15,2013-08-05 19:29:00,
2013-08-05 15:34:00,78.9,62.4,30.09,South,173,1.0,3.0,57,0.00,,,0.00,353,Wunderground v.1.15,2013-08-05 19:34:00,
2013-08-05 15:39:00,78.9,60.8,30.09,SE,142,2.0,2.0,54,0.00,,,0.00,316,Wunderground v.1.15,2013-08-05 19:39:00,
2013-08-05 15:45:00,78.5,64.9,30.09,SSW,212,3.0,4.0,63,0.00,,,0.00,378,Wunderground v.1.15,2013-08-05 19:45:00,
2013-08-05 15:50:00,77.6,64.9,30.09,SSW,199,0.0,2.0,65,0.00,,,0.00,380,Wunderground v.1.15,2013-08-05 19:50:00,
2013-08-05 15:55:00,77.8,63.7,30.09,West,261,1.0,2.0,62,0.00,,,0.00,422,Wunderground v.1.15,2013-08-05 19:55:00,
2013-08-05 16:02:00,78.7,66.8,30.09,WSW,253,0.0,1.0,67,0.00,,,0.00,315,Wunderground v.1.15,2013-08-05 20:02:00,
2013-08-05 16:07:00,77.4,65.1,30.09,WSW,253,0.0,1.0,66,0.00,,,0.00,339,Wunderground v.1.15,2013-08-05 20:07:00,
2013-08-05 16:12:00,78.0,63.9,30.09,SE,140,1.0,2.0,62,0.00,,,0.00,220,Wunderground v.1.15,2013-08-05 20:12:00,
2013-08-05 16:17:00,78.7,62.2,30.09,SE,126,2.0,5.0,57,0.00,,,0.00,218,Wunderground v.1.15,2013-08-05 20:17:00,
2013-08-05 16:22:00,78.9,61.9,30.09,ESE,116,3.0,4.0,56,0.00,,,0.00,216,Wunderground v.1.15,2013-08-05 20:22:00,
2013-08-05 16:27:00,78.9,61.9,30.09,ESE,119,1.0,4.0,56,0.00,,,0.00,265,Wunderground v.1.15,2013-08-05 20:27:00,
2013-08-05 16:33:00,79.2,62.1,30.09,ESE,120,2.0,2.0,56,0.00,,,0.00,424,Wunderground v.1.15,2013-08-05 20:33:00,
2013-08-05 16:38:00,79.0,61.5,30.09,SE,126,0.0,3.0,55,0.00,,,0.00,346,Wunderground v.1.15,2013-08-05 20:38:00,
2013-08-05 16:44:00,78.1,67.5,30.09,SE,126,0.0,1.0,70,0.00,,,0.00,257,Wunderground v.1.15,2013-08-05 20:44:00,
2013-08-05 16:49:00,76.7,70.1,30.09,SE,126,0.0,1.0,80,0.00,,,0.00,195,Wunderground v.1.15,2013-08-05 20:49:00,
2013-08-05 16:54:00,76.7,67.0,30.09,SE,126,0.0,0.0,72,0.00,,,0.00,302,Wunderground v.1.15,2013-08-05 20:54:00,
2013-08-05 16:59:00,78.7,66.8,30.09,WNW,294,0.0,1.0,67,0.00,,,0.00,570,Wunderground v.1.15,2013-08-05 20:59:00,
2013-08-05 17:04:00,79.8,63.7,30.08,SSW,206,0.0,2.0,58,0.00,,,0.00,504,Wunderground v.1.15,2013-08-05 21:04:00,
2013-08-05 17:10:00,79.6,63.5,30.09,South,182,1.0,1.0,58,0.00,,,0.00,207,Wunderground v.1.15,2013-08-05 21:10:00,
2013-08-05 17:15:00,78.8,67.3,30.09,SW,219,1.0,1.0,68,0.00,,,0.00,258,Wunderground v.1.15,2013-08-05 21:15:00,
2013-08-05 17:20:00,77.2,67.5,30.09,WNW,283,0.0,0.0,72,0.00,,,0.00,176,Wunderground v.1.15,2013-08-05 21:20:00,
2013-08-05 17:25:00,76.7,64.5,30.09,WNW,283,0.0,0.0,66,0.00,,,0.00,223,Wunderground v.1.15,2013-08-05 21:25:00,
2013-08-05 17:30:00,76.6,66.5,30.08,West,262,1.0,1.0,71,0.00,,,0.00,225,Wunderground v.1.15,2013-08-05 21:30:00,
2013-08-05 17:36:00,77.0,65.6,30.09,SSW,205,1.0,3.0,68,0.00,,,0.00,144,Wunderground v.1.15,2013-08-05 21:36:00,
2013-08-05 17:41:00,77.1,66.1,30.08,South,179,0.0,1.0,69,0.00,,,0.00,102,Wunderground v.1.15,2013-08-05 21:41:00,
2013-08-05 17:46:00,76.4,65.9,30.08,South,179,0.0,1.0,70,0.00,,,0.00,104,Wunderground v.1.15,2013-08-05 21:46:00,
2013-08-05 17:51:00,77.5,68.2,30.08,South,179,0.0,0.0,73,0.00,,,0.00,332,Wunderground v.1.15,2013-08-05 21:51:00,
2013-08-05 17:56:00,78.7,64.6,30.08,South,173,1.0,2.0,62,0.00,,,0.00,311,Wunderground v.1.15,2013-08-05 21:56:00,
2013-08-05 18:02:00,78.5,63.5,30.08,South,173,0.0,0.0,60,0.00,,,0.00,216,Wunderground v.1.15,2013-08-05 22:02:00,
2013-08-05 18:07:00,78.9,65.7,30.08,SSE,165,1.0,3.0,64,0.00,,,0.00,197,Wunderground v.1.15,2013-08-05 22:07:00,
2013-08-05 18:12:00,78.7,64.6,30.08,SE,145,2.0,2.0,62,0.00,,,0.00,204,Wunderground v.1.15,2013-08-05 22:12:00,
2013-08-05 18:17:00,79.0,63.9,30.08,SSE,156,1.0,3.0,60,0.00,,,0.00,183,Wunderground v.1.15,2013-08-05 22:17:00,
2013-08-05 18:22:00,78.8,65.1,30.08,SE,142,2.0,2.0,63,0.00,,,0.00,121,Wunderground v.1.15,2013-08-05 22:22:00,
2013-08-05 18:27:00,78.3,66.0,30.08,SE,144,0.0,2.0,66,0.00,,,0.00,84,Wunderground v.1.15,2013-08-05 22:27:00,
2013-08-05 18:33:00,75.8,68.8,30.09,SE,144,0.0,1.0,79,0.00,,,0.00,56,Wunderground v.1.15,2013-08-05 22:33:00,
2013-08-05 18:38:00,74.5,67.2,30.09,SE,144,0.0,1.0,78,0.00,,,0.00,81,Wunderground v.1.15,2013-08-05 22:38:00,
2013-08-05 18:43:00,73.7,66.8,30.08,SE,144,0.0,0.0,79,0.00,,,0.00,40,Wunderground v.1.15,2013-08-05 22:43:00,
2013-08-05 18:48:00,73.1,66.9,30.08,SE,144,0.0,0.0,81,0.00,,,0.00,63,Wunderground v.1.15,2013-08-05 22:48:00,
2013-08-05 18:53:00,73.8,66.9,30.08,SE,144,0.0,0.0,79,0.00,,,0.00,49,Wunderground v.1.15,2013-08-05 22:53:00,
2013-08-05 18:58:00,73.4,67.6,30.08,SE,144,0.0,1.0,82,0.00,,,0.00,74,Wunderground v.1.15,2013-08-05 22:58:00,
2013-08-05 19:03:00,73.3,67.5,30.08,SE,145,0.0,1.0,82,0.00,,,0.00,58,Wunderground v.1.15,2013-08-05 23:03:00,
2013-08-05 19:08:00,73.4,67.6,30.08,West,271,0.0,2.0,82,0.00,,,0.00,81,Wunderground v.1.15,2013-08-05 23:08:00,
2013-08-05 19:13:00,74.3,67.4,30.08,SSE,161,0.0,2.0,79,0.00,,,0.00,56,Wunderground v.1.15,2013-08-05 23:13:00,
2013-08-05 19:18:00,76.5,66.0,30.08,NE,40,2.0,3.0,70,0.00,,,0.00,44,Wunderground v.1.15,2013-08-05 23:18:00,
2013-08-05 19:23:00,77.5,65.7,30.09,ENE,63,1.0,4.0,67,0.00,,,0.00,63,Wunderground v.1.15,2013-08-05 23:23:00,
2013-08-05 19:28:00,77.6,66.6,30.08,NE,49,1.0,5.0,69,0.00,,,0.00,37,Wunderground v.1.15,2013-08-05 23:28:00,
2013-08-05 19:33:00,77.6,66.2,30.08,ESE,121,3.0,4.0,68,0.00,,,0.00,32,Wunderground v.1.15,2013-08-05 23:33:00,
2013-08-05 19:39:00,77.6,67.0,30.08,ENE,58,1.0,4.0,70,0.00,,,0.00,33,Wunderground v.1.15,2013-08-05 23:39:00,
2013-08-05 19:44:00,77.1,66.6,30.08,ESE,122,1.0,3.0,70,0.00,,,0.00,28,Wunderground v.1.15,2013-08-05 23:44:00,
2013-08-05 19:49:00,76.7,67.0,30.08,ESE,118,0.0,1.0,72,0.00,,,0.00,23,Wunderground v.1.15,2013-08-05 23:49:00,
2013-08-05 19:55:00,76.1,68.4,30.08,SE,130,3.0,3.0,77,0.00,,,0.00,18,Wunderground v.1.15,2013-08-05 23:55:00,
2013-08-05 20:00:00,75.3,67.6,30.08,SE,130,0.0,2.0,77,0.00,,,0.00,14,Wunderground v.1.15,2013-08-06 00:00:00,
2013-08-05 20:05:00,75.1,67.4,30.08,SE,130,2.0,2.0,77,0.00,,,0.00,9,Wunderground v.1.15,2013-08-06 00:05:00,
2013-08-05 20:10:00,75.0,66.5,30.08,SE,130,0.0,2.0,75,0.00,,,0.00,5,Wunderground v.1.15,2013-08-06 00:10:00,
2013-08-05 20:15:00,72.9,68.1,30.08,SE,130,0.0,2.0,85,0.00,,,0.00,0,Wunderground v.1.15,2013-08-06 00:15:00,
2013-08-05 20:20:00,71.2,67.5,30.08,SE,130,0.0,0.0,88,0.00,,,0.00,0,Wunderground v.1.15,2013-08-06 00:20:00,
2013-08-05 20:25:00,70.6,67.2,30.08,SE,130,0.0,0.0,89,0.00,,,0.00,0,Wunderground v.1.15,2013-08-06 00:25:00,
2013-08-05 20:31:00,70.5,67.1,30.08,SE,130,0.0,0.0,89,0.00,,,0.00,0,Wunderground v.1.15,2013-08-06 00:31:00,
2013-08-05 20:36:00,70.7,67.3,30.09,SE,130,0.0,1.0,89,0.00,,,0.00,0,Wunderground v.1.15,2013-08-06 00:36:00,
2013-08-05 20:41:00,70.4,67.3,30.09,SE,130,0.0,0.0,90,0.00,,,0.00,0,Wunderground v.1.15,2013-08-06 00:41:00,
2013-08-05 20:46:00,70.2,67.1,30.09,SE,130,0.0,0.0,90,0.00,,,0.00,0,Wunderground v.1.15,2013-08-06 00:46:00,
2013-08-05 20:51:00,69.8,67.1,30.09,SE,130,0.0,0.0,91,0.00,,,0.00,0,Wunderground v.1.15,2013-08-06 00:51:00,
2013-08-05 20:56:00,69.5,66.8,30.10,SE,130,0.0,0.0,91,0.00,,,0.00,0,Wunderground v.1.15,2013-08-06 00:56:00,
2013-08-05 21:02:00,69.6,67.2,30.10,SE,130,0.0,0.0,92,0.00,,,0.00,0,Wunderground v.1.15,2013-08-06 01:02:00,
2013-08-05 21:07:00,70.0,67.6,30.10,SE,130,0.0,1.0,92,0.00,,,0.00,0,Wunderground v.1.15,2013-08-06 01:07:00,
2013-08-05 21:12:00,71.1,68.0,30.09,SE,130,1.0,1.0,90,0.00,,,0.00,0,Wunderground v.1.15,2013-08-06 01:12:00,
2013-08-05 21:17:00,72.3,67.5,30.09,SE,130,0.0,2.0,85,0.00,,,0.00,0,Wunderground v.1.15,2013-08-06 01:17:00,
2013-08-05 21:22:00,72.8,67.0,30.10,ENE,65,1.0,2.0,82,0.00,,,0.00,0,Wunderground v.1.15,2013-08-06 01:22:00,
2013-08-05 21:27:00,73.3,66.8,30.09,ESE,111,1.0,2.0,80,0.00,,,0.00,0,Wunderground v.1.15,2013-08-06 01:27:00,
2013-08-05 21:32:00,73.0,67.2,30.09,ESE,112,2.0,2.0,82,0.00,,,0.00,0,Wunderground v.1.15,2013-08-06 01:32:00,
2013-08-05 21:37:00,72.6,67.1,30.09,ESE,115,1.0,3.0,83,0.00,,,0.00,0,Wunderground v.1.15,2013-08-06 01:37:00,
2013-08-05 21:42:00,72.6,67.1,30.09,ESE,115,1.0,1.0,83,0.00,,,0.00,0,Wunderground v.1.15,2013-08-06 01:42:00,
2013-08-05 21:47:00,72.6,66.8,30.09,ESE,115,1.0,3.0,82,0.00,,,0.00,0,Wunderground v.1.15,2013-08-06 01:47:00,
2013-08-05 21:53:00,72.5,67.0,30.09,ESE,115,1.0,3.0,83,0.00,,,0.00,0,Wunderground v.1.15,2013-08-06 01:53:00,
2013-08-05 21:58:00,71.9,67.1,30.09,ESE,115,0.0,3.0,85,0.00,,,0.00,0,Wunderground v.1.15,2013-08-06 01:58:00,
2013-08-05 22:03:00,71.7,66.9,30.10,ESE,115,1.0,1.0,85,0.00,,,0.00,0,Wunderground v.1.15,2013-08-06 02:03:00,
2013-08-05 22:08:00,71.9,66.8,30.09,ESE,115,1.0,2.0,84,0.00,,,0.00,0,Wunderground v.1.15,2013-08-06 02:08:00,
2013-08-05 22:13:00,72.0,66.9,30.09,ESE,115,0.0,2.0,84,0.00,,,0.00,0,Wunderground v.1.15,2013-08-06 02:13:00,
2013-08-05 22:18:00,71.9,66.8,30.09,ESE,115,2.0,3.0,84,0.00,,,0.00,0,Wunderground v.1.15,2013-08-06 02:18:00,
2013-08-05 22:23:00,71.8,67.0,30.09,ESE,115,1.0,3.0,85,0.00,,,0.00,0,Wunderground v.1.15,2013-08-06 02:23:00,
2013-08-05 22:28:00,71.6,66.8,30.09,ESE,115,2.0,3.0,85,0.00,,,0.00,0,Wunderground v.1.15,2013-08-06 02:28:00,
2013-08-05 22:34:00,71.5,66.8,30.09,ESE,115,2.0,3.0,85,0.00,,,0.00,0,Wunderground v.1.15,2013-08-06 02:34:00,
2013-08-05 22:39:00,71.4,66.7,30.09,ESE,115,0.0,3.0,85,0.00,,,0.00,0,Wunderground v.1.15,2013-08-06 02:39:00,
2013-08-05 22:44:00,71.0,66.6,30.08,ESE,115,0.0,1.0,86,0.00,,,0.00,0,Wunderground v.1.15,2013-08-06 02:44:00,
2013-08-05 22:49:00,70.6,66.5,30.08,ESE,115,0.0,0.0,87,0.00,,,0.00,0,Wunderground v.1.15,2013-08-06 02:49:00,
2013-08-05 22:55:00,70.3,66.6,30.08,ESE,115,0.0,1.0,88,0.00,,,0.00,0,Wunderground v.1.15,2013-08-06 02:55:00,
2013-08-05 23:00:00,70.6,66.2,30.08,ESE,115,1.0,2.0,86,0.00,,,0.00,0,Wunderground v.1.15,2013-08-06 03:00:00,
2013-08-05 23:05:00,70.8,66.4,30.08,ESE,115,2.0,3.0,86,0.00,,,0.00,0,Wunderground v.1.15,2013-08-06 03:05:00,
2013-08-05 23:10:00,70.8,66.4,30.08,ESE,115,1.0,3.0,86,0.00,,,0.00,0,Wunderground v.1.15,2013-08-06 03:10:00,
2013-08-05 23:15:00,70.9,66.5,30.08,ESE,115,2.0,3.0,86,0.00,,,0.00,0,Wunderground v.1.15,2013-08-06 03:15:00,
2013-08-05 23:20:00,71.0,66.6,30.08,ESE,115,1.0,2.0,86,0.00,,,0.00,0,Wunderground v.1.15,2013-08-06 03:20:00,
2013-08-05 23:25:00,70.9,66.5,30.08,ESE,115,1.0,2.0,86,0.00,,,0.00,0,Wunderground v.1.15,2013-08-06 03:25:00,
2013-08-05 23:30:00,71.0,66.6,30.08,ESE,115,0.0,1.0,86,0.00,,,0.00,0,Wunderground v.1.15,2013-08-06 03:30:00,
2013-08-05 23:35:00,71.0,66.3,30.08,ESE,115,0.0,2.0,85,0.00,,,0.00,0,Wunderground v.1.15,2013-08-06 03:35:00,
2013-08-05 23:40:00,70.9,66.5,30.08,ESE,115,1.0,1.0,86,0.00,,,0.00,0,Wunderground v.1.15,2013-08-06 03:40:00,
2013-08-05 23:45:00,70.6,66.5,30.08,ESE,115,0.0,2.0,87,0.00,,,0.00,0,Wunderground v.1.15,2013-08-06 03:45:00,
2013-08-05 23:50:00,70.4,66.3,30.08,ESE,115,0.0,0.0,87,0.00,,,0.00,0,Wunderground v.1.15,2013-08-06 03:50:00,
2013-08-05 23:55:00,70.4,66.3,30.07,ESE,115,0.0,1.0,87,0.00,,,0.00,0,Wunderground v.1.15,2013-08-06 03:55:00,